Aérodrome :
LOGIN :

S'inscrire | Disclaimer

   EN    FR    IT 

 










Légende :    VFR   VFR Marginal   IFR   IFR Intensif   IFR Très Intensif
Visi : 
Plafond : 
>= 8 km
>= 3000ft
5 à 8 km
1000 à 3000 ft
1500m à 5 km
500 à 1000 ft
800 à 1500m
200 à 500 ft
< 800m
< 200 ft
Symboles :   Orages  Brouillard  Fortes neiges  Fortes précipitations  Vent > 20 kt
SIGMETs :   Divers  Orages  Givrage  Turbulence  Onde Orograph.  Cendres Volcan.







- Altitude de l'aérodrome : 82 ft
- Code IATA : QIE
- Voir les cartes d'approche


LFMI - Istres

DERNIER METAR :
  • 230230Z AUTO 34003KT 9999 BKN009 BKN019 BKN026 23/20 Q1016 TEMPO BKN010

METARs EXPIRÉS :
  • 230200Z AUTO VRB02KT 9999 BKN010 BKN080 23/20 Q1016 TEMPO BKN015
  • 230130Z AUTO VRB02KT 9999 BKN015 BKN078 24/20 Q1016 NOSIG
  • 230100Z AUTO 19002KT 9999 SCT014 BKN074 24/20 Q1017 NOSIG
  • 230030Z AUTO 20002KT 9999 FEW014 OVC070 24/20 Q1017 NOSIG
  • 230000Z AUTO 17002KT 9999 BKN018 BKN076 24/20 Q1017 NOSIG

TAF TAF LFMI
Valide du 23 à 03h jusqu'au 24 à 03h UTC


230200Z 2303/2403 VRB03KT 9999 FEW020
TEMPO 2303/2305 BKN010
BECMG 2306/2308 33010KT CAVOK
BECMG 2311/2313 24015KT
PROB40
TEMPO 2320/2322 26015G25KT
TEMPO 2322/2401 VRB10KT
BECMG 2401/2403 30012KT
Pas de NOTAMs connus pour ce terrain.



MET'MAP, la Météo Aéronautique d'un coup d'oeil ! - Copyright ORBIFLY Décembre 2007 - Disclaimer

ORBIFLY MET'MAP TEAM :

Programmation & Développement : Alexandra Zaïnal
Conception & Développement : Baudouin d'Aumeries
Co-Programmation & Développement : Marc-Olivier Méhu
Soutien technique & logistique : Manuel Goepfert

Contact : metmap@orbifly.com




SOURCES & CREDITS :

   NOAA